sensor_id;sensor_type;location;lat;lon;timestamp;P1;durP1;ratioP1;P2;durP2;ratioP2
50281;SDS011;36176;51.506;10.272;2023-09-08T00:02:21;8.10;;;7.50;;
50281;SDS011;36176;51.506;10.272;2023-09-08T00:04:49;8.45;;;7.57;;
50281;SDS011;36176;51.506;10.272;2023-09-08T00:07:16;8.65;;;7.85;;
50281;SDS011;36176;51.506;10.272;2023-09-08T00:09:43;10.68;;;9.23;;
50281;SDS011;36176;51.506;10.272;2023-09-08T00:12:10;8.02;;;7.38;;
50281;SDS011;36176;51.506;10.272;2023-09-08T00:14:37;9.47;;;8.67;;
50281;SDS011;36176;51.506;10.272;2023-09-08T00:17:04;9.57;;;8.60;;
50281;SDS011;36176;51.506;10.272;2023-09-08T00:19:31;11.03;;;9.93;;
50281;SDS011;36176;51.506;10.272;2023-09-08T00:21:59;10.43;;;9.10;;
50281;SDS011;36176;51.506;10.272;2023-09-08T00:24:27;10.43;;;9.40;;
50281;SDS011;36176;51.506;10.272;2023-09-08T00:26:54;10.13;;;8.43;;
50281;SDS011;36176;51.506;10.272;2023-09-08T00:29:21;9.50;;;8.60;;
50281;SDS011;36176;51.506;10.272;2023-09-08T00:31:48;8.97;;;8.17;;
50281;SDS011;36176;51.506;10.272;2023-09-08T00:34:15;10.30;;;8.47;;
50281;SDS011;36176;51.506;10.272;2023-09-08T00:36:42;9.27;;;8.27;;
50281;SDS011;36176;51.506;10.272;2023-09-08T00:39:10;9.30;;;8.40;;
50281;SDS011;36176;51.506;10.272;2023-09-08T00:41:37;10.17;;;9.23;;
50281;SDS011;36176;51.506;10.272;2023-09-08T00:44:04;10.00;;;9.10;;
50281;SDS011;36176;51.506;10.272;2023-09-08T00:46:31;9.80;;;8.90;;
50281;SDS011;36176;51.506;10.272;2023-09-08T00:48:59;10.27;;;9.27;;
50281;SDS011;36176;51.506;10.272;2023-09-08T00:51:27;11.20;;;9.27;;
50281;SDS011;36176;51.506;10.272;2023-09-08T00:53:54;10.23;;;9.37;;
50281;SDS011;36176;51.506;10.272;2023-09-08T00:56:22;12.00;;;9.70;;
50281;SDS011;36176;51.506;10.272;2023-09-08T00:58:50;9.80;;;8.90;;
50281;SDS011;36176;51.506;10.272;2023-09-08T01:01:16;10.80;;;9.80;;
50281;SDS011;36176;51.506;10.272;2023-09-08T01:03:44;9.67;;;8.67;;
50281;SDS011;36176;51.506;10.272;2023-09-08T01:06:11;8.90;;;8.10;;
50281;SDS011;36176;51.506;10.272;2023-09-08T01:08:39;9.43;;;8.53;;
50281;SDS011;36176;51.506;10.272;2023-09-08T01:11:06;10.40;;;9.47;;
50281;SDS011;36176;51.506;10.272;2023-09-08T01:13:33;9.00;;;8.20;;
50281;SDS011;36176;51.506;10.272;2023-09-08T01:16:01;12.17;;;11.00;;
50281;SDS011;36176;51.506;10.272;2023-09-08T01:18:28;11.30;;;10.20;;
50281;SDS011;36176;51.506;10.272;2023-09-08T01:21:13;10.40;;;9.40;;
50281;SDS011;36176;51.506;10.272;2023-09-08T01:26:55;10.23;;;9.20;;
50281;SDS011;36176;51.506;10.272;2023-09-08T01:29:23;11.60;;;10.53;;
50281;SDS011;36176;51.506;10.272;2023-09-08T01:32:04;12.70;;;11.40;;
50281;SDS011;36176;51.506;10.272;2023-09-08T01:34:32;9.50;;;8.60;;
50281;SDS011;36176;51.506;10.272;2023-09-08T01:37:00;9.30;;;8.50;;
50281;SDS011;36176;51.506;10.272;2023-09-08T01:39:27;11.43;;;10.23;;
50281;SDS011;36176;51.506;10.272;2023-09-08T01:41:54;10.40;;;9.43;;
50281;SDS011;36176;51.506;10.272;2023-09-08T01:44:27;10.17;;;9.17;;
50281;SDS011;36176;51.506;10.272;2023-09-08T01:46:54;9.37;;;8.47;;
50281;SDS011;36176;51.506;10.272;2023-09-08T01:49:21;11.13;;;10.13;;
50281;SDS011;36176;51.506;10.272;2023-09-08T01:51:48;11.30;;;10.20;;
50281;SDS011;36176;51.506;10.272;2023-09-08T01:54:15;7.97;;;7.27;;
50281;SDS011;36176;51.506;10.272;2023-09-08T01:56:43;12.13;;;9.73;;
50281;SDS011;36176;51.506;10.272;2023-09-08T01:59:10;11.13;;;10.03;;
50281;SDS011;36176;51.506;10.272;2023-09-08T02:01:37;10.10;;;9.20;;
50281;SDS011;36176;51.506;10.272;2023-09-08T02:04:04;10.97;;;9.80;;
50281;SDS011;36176;51.506;10.272;2023-09-08T02:06:32;10.30;;;9.40;;
50281;SDS011;36176;51.506;10.272;2023-09-08T02:08:59;11.33;;;10.20;;
50281;SDS011;36176;51.506;10.272;2023-09-08T02:11:26;12.63;;;10.57;;
50281;SDS011;36176;51.506;10.272;2023-09-08T02:13:53;13.67;;;12.23;;
50281;SDS011;36176;51.506;10.272;2023-09-08T02:16:24;11.60;;;10.50;;
50281;SDS011;36176;51.506;10.272;2023-09-08T02:18:51;9.33;;;8.53;;
50281;SDS011;36176;51.506;10.272;2023-09-08T02:21:21;10.83;;;9.73;;
50281;SDS011;36176;51.506;10.272;2023-09-08T02:23:48;12.07;;;10.97;;
50281;SDS011;36176;51.506;10.272;2023-09-08T02:26:15;11.43;;;10.43;;
50281;SDS011;36176;51.506;10.272;2023-09-08T02:28:42;11.00;;;9.90;;
50281;SDS011;36176;51.506;10.272;2023-09-08T02:31:09;10.43;;;9.40;;
50281;SDS011;36176;51.506;10.272;2023-09-08T02:33:37;11.00;;;10.07;;
50281;SDS011;36176;51.506;10.272;2023-09-08T02:36:04;10.73;;;9.73;;
50281;SDS011;36176;51.506;10.272;2023-09-08T02:38:32;9.93;;;9.13;;
50281;SDS011;36176;51.506;10.272;2023-09-08T02:41:00;12.97;;;11.70;;
50281;SDS011;36176;51.506;10.272;2023-09-08T02:43:28;10.83;;;9.93;;
50281;SDS011;36176;51.506;10.272;2023-09-08T02:45:56;11.10;;;10.10;;
50281;SDS011;36176;51.506;10.272;2023-09-08T02:48:24;12.00;;;10.63;;
50281;SDS011;36176;51.506;10.272;2023-09-08T02:50:51;10.97;;;10.07;;
50281;SDS011;36176;51.506;10.272;2023-09-08T02:53:18;10.83;;;9.83;;
50281;SDS011;36176;51.506;10.272;2023-09-08T02:55:45;10.70;;;9.80;;
50281;SDS011;36176;51.506;10.272;2023-09-08T02:58:13;10.30;;;9.30;;
50281;SDS011;36176;51.506;10.272;2023-09-08T03:00:40;16.63;;;9.20;;
50281;SDS011;36176;51.506;10.272;2023-09-08T03:03:07;10.50;;;9.47;;
50281;SDS011;36176;51.506;10.272;2023-09-08T03:05:34;9.90;;;9.10;;
50281;SDS011;36176;51.506;10.272;2023-09-08T03:08:01;11.93;;;10.73;;
50281;SDS011;36176;51.506;10.272;2023-09-08T03:10:29;11.50;;;10.40;;
50281;SDS011;36176;51.506;10.272;2023-09-08T03:12:56;13.77;;;12.43;;
50281;SDS011;36176;51.506;10.272;2023-09-08T03:15:23;12.33;;;11.20;;
50281;SDS011;36176;51.506;10.272;2023-09-08T03:17:50;11.93;;;10.90;;
50281;SDS011;36176;51.506;10.272;2023-09-08T03:20:17;11.73;;;10.63;;
50281;SDS011;36176;51.506;10.272;2023-09-08T03:22:44;11.03;;;10.03;;
50281;SDS011;36176;51.506;10.272;2023-09-08T03:25:13;12.20;;;11.10;;
50281;SDS011;36176;51.506;10.272;2023-09-08T03:27:40;13.00;;;11.70;;
50281;SDS011;36176;51.506;10.272;2023-09-08T03:30:08;10.90;;;9.90;;
50281;SDS011;36176;51.506;10.272;2023-09-08T03:32:36;11.03;;;10.03;;
50281;SDS011;36176;51.506;10.272;2023-09-08T03:35:04;11.07;;;10.07;;
50281;SDS011;36176;51.506;10.272;2023-09-08T03:37:32;10.97;;;9.97;;
50281;SDS011;36176;51.506;10.272;2023-09-08T03:39:59;11.63;;;10.53;;
50281;SDS011;36176;51.506;10.272;2023-09-08T03:42:26;11.90;;;10.80;;
50281;SDS011;36176;51.506;10.272;2023-09-08T03:44:54;10.33;;;9.43;;
50281;SDS011;36176;51.506;10.272;2023-09-08T03:47:21;12.43;;;11.27;;
50281;SDS011;36176;51.506;10.272;2023-09-08T03:49:48;11.20;;;10.10;;
50281;SDS011;36176;51.506;10.272;2023-09-08T03:52:15;10.83;;;9.83;;
50281;SDS011;36176;51.506;10.272;2023-09-08T03:54:44;11.03;;;10.03;;
50281;SDS011;36176;51.506;10.272;2023-09-08T03:57:11;13.83;;;12.53;;
50281;SDS011;36176;51.506;10.272;2023-09-08T03:59:38;12.23;;;11.13;;
50281;SDS011;36176;51.506;10.272;2023-09-08T04:02:05;15.77;;;14.37;;
50281;SDS011;36176;51.506;10.272;2023-09-08T04:04:32;12.17;;;11.13;;
50281;SDS011;36176;51.506;10.272;2023-09-08T04:06:59;14.50;;;13.17;;
50281;SDS011;36176;51.506;10.272;2023-09-08T04:09:26;12.50;;;11.30;;
50281;SDS011;36176;51.506;10.272;2023-09-08T04:11:53;11.67;;;10.60;;
50281;SDS011;36176;51.506;10.272;2023-09-08T04:14:21;10.77;;;9.67;;
50281;SDS011;36176;51.506;10.272;2023-09-08T04:16:48;11.57;;;10.57;;
50281;SDS011;36176;51.506;10.272;2023-09-08T04:19:15;10.63;;;9.70;;
50281;SDS011;36176;51.506;10.272;2023-09-08T04:21:42;10.73;;;9.83;;
50281;SDS011;36176;51.506;10.272;2023-09-08T04:24:09;11.50;;;10.40;;
50281;SDS011;36176;51.506;10.272;2023-09-08T04:26:37;12.47;;;11.37;;
50281;SDS011;36176;51.506;10.272;2023-09-08T04:29:04;11.30;;;10.20;;
50281;SDS011;36176;51.506;10.272;2023-09-08T04:31:31;12.13;;;11.13;;
50281;SDS011;36176;51.506;10.272;2023-09-08T04:33:58;10.33;;;9.43;;
50281;SDS011;36176;51.506;10.272;2023-09-08T04:36:25;13.03;;;11.93;;
50281;SDS011;36176;51.506;10.272;2023-09-08T04:38:53;11.57;;;10.57;;
50281;SDS011;36176;51.506;10.272;2023-09-08T04:41:20;17.03;;;15.37;;
50281;SDS011;36176;51.506;10.272;2023-09-08T04:43:47;17.10;;;15.53;;
50281;SDS011;36176;51.506;10.272;2023-09-08T04:46:14;15.33;;;13.93;;
50281;SDS011;36176;51.506;10.272;2023-09-08T04:48:41;10.57;;;9.67;;
50281;SDS011;36176;51.506;10.272;2023-09-08T04:51:08;10.43;;;9.43;;
50281;SDS011;36176;51.506;10.272;2023-09-08T04:53:35;11.03;;;9.93;;
50281;SDS011;36176;51.506;10.272;2023-09-08T04:56:02;11.97;;;10.87;;
50281;SDS011;36176;51.506;10.272;2023-09-08T04:58:30;10.77;;;9.77;;
50281;SDS011;36176;51.506;10.272;2023-09-08T05:00:57;17.20;;;15.60;;
50281;SDS011;36176;51.506;10.272;2023-09-08T05:03:24;19.53;;;17.73;;
50281;SDS011;36176;51.506;10.272;2023-09-08T05:05:51;13.23;;;11.83;;
50281;SDS011;36176;51.506;10.272;2023-09-08T05:08:18;15.47;;;13.77;;
50281;SDS011;36176;51.506;10.272;2023-09-08T05:10:45;16.20;;;14.63;;
50281;SDS011;36176;51.506;10.272;2023-09-08T05:13:12;13.27;;;12.07;;
50281;SDS011;36176;51.506;10.272;2023-09-08T05:15:54;12.93;;;11.60;;
50281;SDS011;36176;51.506;10.272;2023-09-08T05:18:21;12.90;;;11.63;;
50281;SDS011;36176;51.506;10.272;2023-09-08T05:20:49;16.07;;;14.57;;
50281;SDS011;36176;51.506;10.272;2023-09-08T05:23:16;15.07;;;13.67;;
50281;SDS011;36176;51.506;10.272;2023-09-08T05:25:44;11.97;;;10.77;;
50281;SDS011;36176;51.506;10.272;2023-09-08T05:28:11;12.83;;;11.47;;
50281;SDS011;36176;51.506;10.272;2023-09-08T05:30:38;14.00;;;12.80;;
50281;SDS011;36176;51.506;10.272;2023-09-08T05:33:05;13.37;;;12.17;;
50281;SDS011;36176;51.506;10.272;2023-09-08T05:35:33;19.17;;;17.27;;
50281;SDS011;36176;51.506;10.272;2023-09-08T05:38:00;15.90;;;14.43;;
50281;SDS011;36176;51.506;10.272;2023-09-08T05:40:27;14.17;;;12.77;;
50281;SDS011;36176;51.506;10.272;2023-09-08T05:42:54;14.63;;;13.33;;
50281;SDS011;36176;51.506;10.272;2023-09-08T05:45:21;14.43;;;13.17;;
50281;SDS011;36176;51.506;10.272;2023-09-08T05:47:49;13.97;;;12.60;;
50281;SDS011;36176;51.506;10.272;2023-09-08T05:50:16;14.27;;;12.90;;
50281;SDS011;36176;51.506;10.272;2023-09-08T05:52:43;13.60;;;12.30;;
50281;SDS011;36176;51.506;10.272;2023-09-08T05:55:10;15.43;;;13.57;;
50281;SDS011;36176;51.506;10.272;2023-09-08T05:57:37;15.20;;;13.60;;
50281;SDS011;36176;51.506;10.272;2023-09-08T06:00:04;14.93;;;13.40;;
50281;SDS011;36176;51.506;10.272;2023-09-08T06:02:32;13.37;;;12.17;;
50281;SDS011;36176;51.506;10.272;2023-09-08T06:04:59;14.07;;;12.60;;
50281;SDS011;36176;51.506;10.272;2023-09-08T06:07:26;14.30;;;12.90;;
50281;SDS011;36176;51.506;10.272;2023-09-08T06:09:53;11.93;;;10.93;;
50281;SDS011;36176;51.506;10.272;2023-09-08T06:12:20;12.43;;;11.33;;
50281;SDS011;36176;51.506;10.272;2023-09-08T06:14:47;10.73;;;9.83;;
50281;SDS011;36176;51.506;10.272;2023-09-08T06:17:14;12.53;;;11.33;;
50281;SDS011;36176;51.506;10.272;2023-09-08T06:19:41;12.43;;;11.27;;
50281;SDS011;36176;51.506;10.272;2023-09-08T06:22:08;12.55;;;11.25;;
50281;SDS011;36176;51.506;10.272;2023-09-08T06:24:35;13.35;;;10.82;;
50281;SDS011;36176;51.506;10.272;2023-09-08T06:27:02;10.63;;;9.73;;
50281;SDS011;36176;51.506;10.272;2023-09-08T06:29:30;11.25;;;10.00;;
50281;SDS011;36176;51.506;10.272;2023-09-08T06:31:57;11.40;;;10.25;;
50281;SDS011;36176;51.506;10.272;2023-09-08T06:34:24;12.05;;;10.85;;
50281;SDS011;36176;51.506;10.272;2023-09-08T06:36:52;11.20;;;10.13;;
50281;SDS011;36176;51.506;10.272;2023-09-08T06:39:19;10.93;;;9.82;;
50281;SDS011;36176;51.506;10.272;2023-09-08T06:41:46;14.20;;;10.13;;
50281;SDS011;36176;51.506;10.272;2023-09-08T06:44:13;9.32;;;8.55;;
50281;SDS011;36176;51.506;10.272;2023-09-08T06:46:40;9.82;;;8.93;;
50281;SDS011;36176;51.506;10.272;2023-09-08T06:49:07;10.57;;;9.38;;
50281;SDS011;36176;51.506;10.272;2023-09-08T06:51:35;10.90;;;9.90;;
50281;SDS011;36176;51.506;10.272;2023-09-08T06:54:03;10.20;;;9.30;;
50281;SDS011;36176;51.506;10.272;2023-09-08T06:56:31;10.55;;;9.60;;
50281;SDS011;36176;51.506;10.272;2023-09-08T06:58:58;10.43;;;9.15;;
50281;SDS011;36176;51.506;10.272;2023-09-08T07:01:25;9.82;;;8.88;;
50281;SDS011;36176;51.506;10.272;2023-09-08T07:03:53;9.10;;;8.30;;
50281;SDS011;36176;51.506;10.272;2023-09-08T07:06:20;10.23;;;8.85;;
50281;SDS011;36176;51.506;10.272;2023-09-08T07:08:48;9.50;;;8.70;;
50281;SDS011;36176;51.506;10.272;2023-09-08T07:11:16;9.32;;;8.43;;
50281;SDS011;36176;51.506;10.272;2023-09-08T07:13:43;10.48;;;8.48;;
50281;SDS011;36176;51.506;10.272;2023-09-08T07:16:11;10.27;;;8.18;;
50281;SDS011;36176;51.506;10.272;2023-09-08T07:18:38;8.73;;;7.93;;
50281;SDS011;36176;51.506;10.272;2023-09-08T07:21:05;8.60;;;7.75;;
50281;SDS011;36176;51.506;10.272;2023-09-08T07:23:32;8.43;;;7.63;;
50281;SDS011;36176;51.506;10.272;2023-09-08T07:25:59;8.40;;;7.70;;
50281;SDS011;36176;51.506;10.272;2023-09-08T07:28:26;8.55;;;7.78;;
50281;SDS011;36176;51.506;10.272;2023-09-08T07:30:53;9.75;;;7.25;;
50281;SDS011;36176;51.506;10.272;2023-09-08T07:33:20;10.27;;;7.60;;
50281;SDS011;36176;51.506;10.272;2023-09-08T07:35:47;8.68;;;7.78;;
50281;SDS011;36176;51.506;10.272;2023-09-08T07:38:15;9.15;;;7.65;;
50281;SDS011;36176;51.506;10.272;2023-09-08T07:40:42;9.25;;;7.50;;
50281;SDS011;36176;51.506;10.272;2023-09-08T07:43:09;7.90;;;7.18;;
50281;SDS011;36176;51.506;10.272;2023-09-08T07:45:36;8.77;;;7.85;;
50281;SDS011;36176;51.506;10.272;2023-09-08T07:48:03;8.23;;;7.43;;
50281;SDS011;36176;51.506;10.272;2023-09-08T07:50:31;8.63;;;6.55;;
50281;SDS011;36176;51.506;10.272;2023-09-08T07:52:58;7.97;;;7.30;;
50281;SDS011;36176;51.506;10.272;2023-09-08T07:55:25;7.47;;;6.88;;
50281;SDS011;36176;51.506;10.272;2023-09-08T07:57:53;8.85;;;7.03;;
50281;SDS011;36176;51.506;10.272;2023-09-08T08:00:20;7.50;;;6.80;;
50281;SDS011;36176;51.506;10.272;2023-09-08T08:02:51;7.55;;;6.50;;
50281;SDS011;36176;51.506;10.272;2023-09-08T08:05:20;7.67;;;6.37;;
50281;SDS011;36176;51.506;10.272;2023-09-08T08:07:47;7.10;;;6.40;;
50281;SDS011;36176;51.506;10.272;2023-09-08T08:10:15;9.45;;;6.53;;
50281;SDS011;36176;51.506;10.272;2023-09-08T08:12:42;6.80;;;6.20;;
50281;SDS011;36176;51.506;10.272;2023-09-08T08:15:10;7.10;;;6.40;;
50281;SDS011;36176;51.506;10.272;2023-09-08T08:17:38;6.65;;;5.95;;
50281;SDS011;36176;51.506;10.272;2023-09-08T08:20:06;7.68;;;6.20;;
50281;SDS011;36176;51.506;10.272;2023-09-08T08:22:38;7.07;;;6.05;;
50281;SDS011;36176;51.506;10.272;2023-09-08T08:25:05;6.60;;;5.90;;
50281;SDS011;36176;51.506;10.272;2023-09-08T08:27:33;6.40;;;5.90;;
50281;SDS011;36176;51.506;10.272;2023-09-08T08:30:00;6.68;;;6.03;;
50281;SDS011;36176;51.506;10.272;2023-09-08T08:32:28;6.40;;;5.73;;
50281;SDS011;36176;51.506;10.272;2023-09-08T08:34:55;6.80;;;5.53;;
50281;SDS011;36176;51.506;10.272;2023-09-08T08:37:22;6.20;;;5.60;;
50281;SDS011;36176;51.506;10.272;2023-09-08T08:39:49;6.03;;;5.43;;
50281;SDS011;36176;51.506;10.272;2023-09-08T08:42:16;6.15;;;5.63;;
50281;SDS011;36176;51.506;10.272;2023-09-08T08:44:43;6.10;;;5.60;;
50281;SDS011;36176;51.506;10.272;2023-09-08T08:47:11;7.93;;;5.80;;
50281;SDS011;36176;51.506;10.272;2023-09-08T08:49:40;6.13;;;5.63;;
50281;SDS011;36176;51.506;10.272;2023-09-08T08:52:10;6.40;;;5.80;;
50281;SDS011;36176;51.506;10.272;2023-09-08T08:54:38;6.90;;;5.85;;
50281;SDS011;36176;51.506;10.272;2023-09-08T08:57:06;6.15;;;5.63;;
50281;SDS011;36176;51.506;10.272;2023-09-08T08:59:33;6.90;;;5.53;;
50281;SDS011;36176;51.506;10.272;2023-09-08T09:02:01;8.45;;;5.47;;
50281;SDS011;36176;51.506;10.272;2023-09-08T09:04:29;7.97;;;5.68;;
50281;SDS011;36176;51.506;10.272;2023-09-08T09:06:58;7.70;;;6.00;;
50281;SDS011;36176;51.506;10.272;2023-09-08T09:09:26;6.88;;;5.60;;
50281;SDS011;36176;51.506;10.272;2023-09-08T09:11:55;7.03;;;5.68;;
50281;SDS011;36176;51.506;10.272;2023-09-08T09:14:22;6.73;;;5.70;;
50281;SDS011;36176;51.506;10.272;2023-09-08T09:16:49;6.93;;;5.60;;
50281;SDS011;36176;51.506;10.272;2023-09-08T09:19:20;6.10;;;5.50;;
50281;SDS011;36176;51.506;10.272;2023-09-08T09:21:49;8.23;;;5.50;;
50281;SDS011;36176;51.506;10.272;2023-09-08T09:24:17;6.68;;;5.65;;
50281;SDS011;36176;51.506;10.272;2023-09-08T09:26:56;6.30;;;5.80;;
50281;SDS011;36176;51.506;10.272;2023-09-08T09:29:23;7.27;;;5.50;;
50281;SDS011;36176;51.506;10.272;2023-09-08T09:31:54;8.07;;;5.57;;
50281;SDS011;36176;51.506;10.272;2023-09-08T09:34:23;6.00;;;5.40;;
50281;SDS011;36176;51.506;10.272;2023-09-08T09:36:50;6.65;;;5.20;;
50281;SDS011;36176;51.506;10.272;2023-09-08T09:39:23;6.00;;;5.32;;
50281;SDS011;36176;51.506;10.272;2023-09-08T09:41:55;5.88;;;5.18;;
50281;SDS011;36176;51.506;10.272;2023-09-08T09:44:23;5.95;;;5.45;;
50281;SDS011;36176;51.506;10.272;2023-09-08T09:46:51;5.40;;;5.00;;
50281;SDS011;36176;51.506;10.272;2023-09-08T09:49:19;5.13;;;4.70;;
50281;SDS011;36176;51.506;10.272;2023-09-08T09:51:48;5.50;;;4.70;;
50281;SDS011;36176;51.506;10.272;2023-09-08T09:54:16;5.30;;;4.70;;
50281;SDS011;36176;51.506;10.272;2023-09-08T09:56:43;5.20;;;4.70;;
50281;SDS011;36176;51.506;10.272;2023-09-08T09:59:14;5.40;;;4.90;;
50281;SDS011;36176;51.506;10.272;2023-09-08T10:01:41;5.30;;;4.70;;
50281;SDS011;36176;51.506;10.272;2023-09-08T10:04:09;5.73;;;5.00;;
50281;SDS011;36176;51.506;10.272;2023-09-08T10:06:37;6.50;;;5.00;;
50281;SDS011;36176;51.506;10.272;2023-09-08T10:09:06;5.30;;;4.80;;
50281;SDS011;36176;51.506;10.272;2023-09-08T10:11:34;7.43;;;4.65;;
50281;SDS011;36176;51.506;10.272;2023-09-08T10:14:06;6.28;;;4.90;;
50281;SDS011;36176;51.506;10.272;2023-09-08T10:16:34;5.30;;;4.65;;
50281;SDS011;36176;51.506;10.272;2023-09-08T10:19:02;5.25;;;4.72;;
50281;SDS011;36176;51.506;10.272;2023-09-08T10:21:42;5.05;;;4.65;;
50281;SDS011;36176;51.506;10.272;2023-09-08T10:24:17;5.30;;;4.80;;
50281;SDS011;36176;51.506;10.272;2023-09-08T10:26:58;5.20;;;4.38;;
50281;SDS011;36176;51.506;10.272;2023-09-08T10:29:31;4.80;;;4.30;;
50281;SDS011;36176;51.506;10.272;2023-09-08T10:31:59;5.30;;;4.82;;
50281;SDS011;36176;51.506;10.272;2023-09-08T10:34:28;5.97;;;5.20;;
50281;SDS011;36176;51.506;10.272;2023-09-08T10:36:57;5.57;;;5.05;;
50281;SDS011;36176;51.506;10.272;2023-09-08T10:44:43;5.32;;;4.95;;
50281;SDS011;36176;51.506;10.272;2023-09-08T10:47:10;5.68;;;5.18;;
50281;SDS011;36176;51.506;10.272;2023-09-08T10:49:38;5.68;;;5.18;;
50281;SDS011;36176;51.506;10.272;2023-09-08T10:52:08;7.30;;;5.00;;
50281;SDS011;36176;51.506;10.272;2023-09-08T10:54:43;5.88;;;5.40;;
50281;SDS011;36176;51.506;10.272;2023-09-08T10:57:14;5.45;;;4.95;;
50281;SDS011;36176;51.506;10.272;2023-09-08T10:59:59;7.88;;;5.10;;
50281;SDS011;36176;51.506;10.272;2023-09-08T11:02:31;5.20;;;4.80;;
50281;SDS011;36176;51.506;10.272;2023-09-08T11:04:59;7.43;;;5.55;;
50281;SDS011;36176;51.506;10.272;2023-09-08T11:07:26;7.03;;;5.28;;
50281;SDS011;36176;51.506;10.272;2023-09-08T11:09:53;6.07;;;5.18;;
50281;SDS011;36176;51.506;10.272;2023-09-08T11:12:20;5.85;;;5.35;;
50281;SDS011;36176;51.506;10.272;2023-09-08T11:14:48;6.10;;;5.50;;
50281;SDS011;36176;51.506;10.272;2023-09-08T11:17:16;5.50;;;5.00;;
50281;SDS011;36176;51.506;10.272;2023-09-08T11:19:45;6.05;;;5.40;;
50281;SDS011;36176;51.506;10.272;2023-09-08T11:22:13;6.50;;;5.10;;
50281;SDS011;36176;51.506;10.272;2023-09-08T11:24:41;6.47;;;5.30;;
50281;SDS011;36176;51.506;10.272;2023-09-08T11:27:12;5.97;;;5.40;;
50281;SDS011;36176;51.506;10.272;2023-09-08T11:29:39;6.03;;;5.43;;
50281;SDS011;36176;51.506;10.272;2023-09-08T11:32:07;8.07;;;5.30;;
50281;SDS011;36176;51.506;10.272;2023-09-08T11:34:35;6.13;;;5.60;;
50281;SDS011;36176;51.506;10.272;2023-09-08T11:37:09;5.95;;;5.45;;
50281;SDS011;36176;51.506;10.272;2023-09-08T11:39:40;7.03;;;5.40;;
50281;SDS011;36176;51.506;10.272;2023-09-08T11:42:08;5.63;;;5.00;;
50281;SDS011;36176;51.506;10.272;2023-09-08T11:44:36;6.00;;;5.32;;
50281;SDS011;36176;51.506;10.272;2023-09-08T11:47:06;5.40;;;4.90;;
50281;SDS011;36176;51.506;10.272;2023-09-08T11:49:37;8.25;;;5.47;;
50281;SDS011;36176;51.506;10.272;2023-09-08T11:52:06;10.80;;;5.60;;
50281;SDS011;36176;51.506;10.272;2023-09-08T11:54:34;7.97;;;5.50;;
50281;SDS011;36176;51.506;10.272;2023-09-08T11:57:06;8.00;;;5.20;;
50281;SDS011;36176;51.506;10.272;2023-09-08T11:59:34;8.25;;;4.90;;
50281;SDS011;36176;51.506;10.272;2023-09-08T12:02:01;5.80;;;5.20;;
50281;SDS011;36176;51.506;10.272;2023-09-08T12:04:28;6.32;;;5.13;;
50281;SDS011;36176;51.506;10.272;2023-09-08T12:06:56;9.05;;;5.35;;
50281;SDS011;36176;51.506;10.272;2023-09-08T12:09:23;5.75;;;5.20;;
50281;SDS011;36176;51.506;10.272;2023-09-08T12:11:51;6.85;;;5.55;;
50281;SDS011;36176;51.506;10.272;2023-09-08T12:14:19;6.38;;;5.15;;
50281;SDS011;36176;51.506;10.272;2023-09-08T12:16:46;9.27;;;5.20;;
50281;SDS011;36176;51.506;10.272;2023-09-08T12:19:29;8.10;;;5.60;;
50281;SDS011;36176;51.506;10.272;2023-09-08T12:21:58;7.82;;;5.10;;
50281;SDS011;36176;51.506;10.272;2023-09-08T12:24:46;10.57;;;5.57;;
50281;SDS011;36176;51.506;10.272;2023-09-08T12:27:15;6.57;;;5.70;;
50281;SDS011;36176;51.506;10.272;2023-09-08T12:29:53;5.82;;;5.32;;
50281;SDS011;36176;51.506;10.272;2023-09-08T12:32:24;7.75;;;5.57;;
50281;SDS011;36176;51.506;10.272;2023-09-08T12:34:52;8.75;;;5.03;;
50281;SDS011;36176;51.506;10.272;2023-09-08T12:37:23;7.07;;;5.30;;
50281;SDS011;36176;51.506;10.272;2023-09-08T12:39:51;5.72;;;5.32;;
50281;SDS011;36176;51.506;10.272;2023-09-08T12:42:19;7.20;;;5.35;;
50281;SDS011;36176;51.506;10.272;2023-09-08T12:44:47;6.00;;;5.40;;
50281;SDS011;36176;51.506;10.272;2023-09-08T12:47:14;5.82;;;5.35;;
50281;SDS011;36176;51.506;10.272;2023-09-08T12:49:41;6.13;;;5.55;;
50281;SDS011;36176;51.506;10.272;2023-09-08T12:52:08;6.82;;;5.68;;
50281;SDS011;36176;51.506;10.272;2023-09-08T12:54:36;5.90;;;5.35;;
50281;SDS011;36176;51.506;10.272;2023-09-08T12:57:03;5.88;;;5.30;;
50281;SDS011;36176;51.506;10.272;2023-09-08T12:59:32;6.00;;;5.45;;
50281;SDS011;36176;51.506;10.272;2023-09-08T13:02:00;5.93;;;5.32;;
50281;SDS011;36176;51.506;10.272;2023-09-08T13:04:27;5.30;;;4.90;;
50281;SDS011;36176;51.506;10.272;2023-09-08T13:06:54;6.70;;;5.10;;
50281;SDS011;36176;51.506;10.272;2023-09-08T13:09:21;6.22;;;5.63;;
50281;SDS011;36176;51.506;10.272;2023-09-08T13:11:48;6.30;;;5.18;;
50281;SDS011;36176;51.506;10.272;2023-09-08T13:14:18;6.68;;;5.10;;
50281;SDS011;36176;51.506;10.272;2023-09-08T13:16:45;5.40;;;5.00;;
50281;SDS011;36176;51.506;10.272;2023-09-08T13:19:12;5.32;;;4.82;;
50281;SDS011;36176;51.506;10.272;2023-09-08T13:21:39;5.63;;;5.13;;
50281;SDS011;36176;51.506;10.272;2023-09-08T13:24:06;6.60;;;5.60;;
50281;SDS011;36176;51.506;10.272;2023-09-08T13:26:37;6.20;;;5.20;;
50281;SDS011;36176;51.506;10.272;2023-09-08T13:29:07;5.75;;;5.22;;
50281;SDS011;36176;51.506;10.272;2023-09-08T13:31:34;5.65;;;5.05;;
50281;SDS011;36176;51.506;10.272;2023-09-08T13:34:02;5.50;;;5.00;;
50281;SDS011;36176;51.506;10.272;2023-09-08T13:36:29;6.07;;;5.18;;
50281;SDS011;36176;51.506;10.272;2023-09-08T13:38:56;5.93;;;5.43;;
50281;SDS011;36176;51.506;10.272;2023-09-08T13:41:24;6.13;;;5.50;;
50281;SDS011;36176;51.506;10.272;2023-09-08T13:43:51;7.13;;;5.55;;
50281;SDS011;36176;51.506;10.272;2023-09-08T13:46:18;6.57;;;5.50;;
50281;SDS011;36176;51.506;10.272;2023-09-08T13:48:45;7.95;;;5.38;;
50281;SDS011;36176;51.506;10.272;2023-09-08T13:51:15;6.28;;;5.32;;
50281;SDS011;36176;51.506;10.272;2023-09-08T13:53:44;8.35;;;5.30;;
50281;SDS011;36176;51.506;10.272;2023-09-08T13:56:13;9.40;;;5.30;;
50281;SDS011;36176;51.506;10.272;2023-09-08T13:58:42;5.78;;;5.28;;
50281;SDS011;36176;51.506;10.272;2023-09-08T14:01:16;5.80;;;4.97;;
50281;SDS011;36176;51.506;10.272;2023-09-08T14:03:46;6.50;;;5.43;;
50281;SDS011;36176;51.506;10.272;2023-09-08T14:06:16;5.60;;;5.10;;
50281;SDS011;36176;51.506;10.272;2023-09-08T14:08:47;7.43;;;4.95;;
50281;SDS011;36176;51.506;10.272;2023-09-08T14:11:37;4.90;;;4.50;;
50281;SDS011;36176;51.506;10.272;2023-09-08T14:14:06;5.47;;;4.97;;
50281;SDS011;36176;51.506;10.272;2023-09-08T14:16:36;7.00;;;5.20;;
50281;SDS011;36176;51.506;10.272;2023-09-08T14:19:03;7.07;;;4.97;;
50281;SDS011;36176;51.506;10.272;2023-09-08T14:21:31;6.25;;;5.68;;
50281;SDS011;36176;51.506;10.272;2023-09-08T14:23:58;6.05;;;4.60;;
50281;SDS011;36176;51.506;10.272;2023-09-08T14:26:25;5.80;;;5.30;;
50281;SDS011;36176;51.506;10.272;2023-09-08T14:28:52;6.97;;;4.75;;
50281;SDS011;36176;51.506;10.272;2023-09-08T14:31:20;5.18;;;4.63;;
50281;SDS011;36176;51.506;10.272;2023-09-08T14:33:47;9.20;;;4.50;;
50281;SDS011;36176;51.506;10.272;2023-09-08T14:36:18;5.93;;;5.05;;
50281;SDS011;36176;51.506;10.272;2023-09-08T14:38:45;5.93;;;4.80;;
50281;SDS011;36176;51.506;10.272;2023-09-08T14:41:12;6.05;;;4.93;;